createdAt,value
2017-09-09T00:01:08.365Z,8.83
2017-09-09T00:03:36.053Z,9.30
2017-09-09T00:06:03.755Z,8.60
2017-09-09T00:08:31.422Z,8.77
2017-09-09T00:10:59.149Z,7.97
2017-09-09T00:13:26.773Z,8.20
2017-09-09T00:15:54.514Z,8.03
2017-09-09T00:18:22.191Z,8.00
2017-09-09T00:20:49.906Z,7.50
2017-09-09T00:23:17.576Z,8.20
2017-09-09T00:25:45.295Z,7.00
2017-09-09T00:28:12.978Z,8.30
2017-09-09T00:30:40.749Z,7.47
2017-09-09T00:33:08.436Z,7.80
2017-09-09T00:35:36.155Z,7.17
2017-09-09T00:38:03.857Z,6.90
2017-09-09T00:40:31.462Z,6.93
2017-09-09T00:42:59.210Z,7.13
2017-09-09T00:45:26.895Z,7.23
2017-09-09T00:47:54.646Z,6.40
2017-09-09T00:50:22.406Z,6.83
2017-09-09T00:52:50.193Z,6.97
2017-09-09T00:55:17.902Z,6.80
2017-09-09T00:57:45.643Z,6.63
2017-09-09T01:00:13.324Z,6.70
2017-09-09T01:02:41.053Z,7.23
2017-09-09T01:05:08.757Z,6.73
2017-09-09T01:07:36.475Z,7.13
2017-09-09T01:10:04.207Z,7.37
2017-09-09T01:12:31.948Z,6.13
2017-09-09T01:14:59.645Z,6.50
2017-09-09T01:17:27.367Z,6.30
2017-09-09T01:19:55.077Z,7.20
2017-09-09T01:22:22.839Z,6.67
2017-09-09T01:24:50.541Z,6.60
2017-09-09T01:27:18.267Z,6.40
2017-09-09T01:29:46.015Z,6.40
2017-09-09T01:32:13.756Z,7.10
2017-09-09T01:34:41.359Z,6.73
2017-09-09T01:37:09.075Z,6.60
2017-09-09T01:39:36.804Z,6.27
2017-09-09T01:42:04.440Z,6.10
2017-09-09T01:44:32.092Z,6.60
2017-09-09T01:46:59.804Z,6.53
2017-09-09T01:49:27.482Z,6.10
2017-09-09T01:51:55.218Z,5.77
2017-09-09T01:54:23.856Z,5.90
2017-09-09T01:56:51.593Z,5.97
2017-09-09T01:59:19.251Z,5.87
2017-09-09T02:01:46.977Z,6.20
2017-09-09T02:04:14.640Z,6.30
2017-09-09T02:06:42.357Z,5.57
2017-09-09T02:09:10.095Z,5.97
2017-09-09T02:11:37.838Z,5.80
2017-09-09T02:14:05.528Z,6.00
2017-09-09T02:16:33.260Z,5.80
2017-09-09T02:19:00.921Z,5.60
2017-09-09T02:21:28.586Z,4.90
2017-09-09T02:23:56.231Z,5.30
2017-09-09T02:26:23.906Z,5.37
2017-09-09T02:28:51.642Z,4.63
2017-09-09T02:31:19.354Z,4.43
2017-09-09T02:33:47.003Z,4.37
2017-09-09T02:36:14.687Z,4.13
2017-09-09T02:38:42.404Z,3.97
2017-09-09T02:41:10.074Z,4.30
2017-09-09T02:43:37.735Z,4.60
2017-09-09T02:46:05.403Z,3.67
2017-09-09T02:48:33.123Z,3.93
2017-09-09T02:51:00.785Z,3.57
2017-09-09T02:53:28.513Z,3.93
2017-09-09T02:55:56.186Z,4.10
2017-09-09T02:58:23.832Z,3.90
2017-09-09T03:00:51.496Z,4.90
2017-09-09T03:03:19.133Z,4.47
2017-09-09T03:05:46.812Z,3.80
2017-09-09T03:08:14.532Z,4.10
2017-09-09T03:10:42.209Z,4.10
2017-09-09T03:13:09.938Z,3.90
2017-09-09T03:15:37.635Z,4.27
2017-09-09T03:18:05.348Z,4.03
2017-09-09T03:20:33.038Z,4.77
2017-09-09T03:23:00.734Z,4.30
2017-09-09T03:25:28.401Z,4.20
2017-09-09T03:27:56.167Z,4.70
2017-09-09T03:30:23.932Z,5.07
2017-09-09T03:32:51.641Z,4.33
2017-09-09T03:35:19.309Z,4.47
2017-09-09T03:37:47.011Z,5.20
2017-09-09T03:40:14.677Z,5.27
2017-09-09T03:42:42.391Z,4.67
2017-09-09T03:45:10.080Z,5.30
2017-09-09T03:47:37.817Z,5.07
2017-09-09T03:50:05.499Z,4.60
2017-09-09T03:52:33.218Z,5.10
2017-09-09T03:55:00.818Z,4.67
2017-09-09T03:57:28.555Z,4.77
2017-09-09T03:59:56.231Z,4.90
2017-09-09T04:02:23.893Z,4.97
2017-09-09T04:04:51.606Z,4.40
2017-09-09T04:07:19.303Z,4.30
2017-09-09T04:09:47.035Z,5.13
2017-09-09T04:12:14.712Z,4.97
2017-09-09T04:14:42.352Z,4.67
2017-09-09T04:17:10.045Z,5.10
2017-09-09T04:19:37.767Z,5.87
2017-09-09T04:22:05.435Z,5.27
2017-09-09T04:24:33.162Z,4.80
2017-09-09T04:27:00.835Z,5.07
2017-09-09T04:29:28.550Z,4.87
2017-09-09T04:31:56.257Z,5.13
2017-09-09T04:34:23.901Z,4.80
2017-09-09T04:36:51.592Z,4.63
2017-09-09T04:39:19.330Z,5.60
2017-09-09T04:41:47.007Z,5.80
2017-09-09T04:44:14.727Z,5.07
2017-09-09T04:46:42.342Z,5.40
2017-09-09T04:49:10.063Z,5.13
2017-09-09T04:51:37.756Z,5.03
2017-09-09T04:54:05.518Z,5.53
2017-09-09T04:56:33.212Z,5.60
2017-09-09T04:59:00.910Z,5.20
2017-09-09T05:01:28.580Z,5.10
2017-09-09T05:03:56.221Z,5.63
2017-09-09T05:06:23.870Z,5.43
2017-09-09T05:08:51.593Z,5.30
2017-09-09T05:11:19.297Z,5.50
2017-09-09T05:13:47.010Z,5.30
2017-09-09T05:16:14.683Z,5.67
2017-09-09T05:18:42.398Z,5.13
2017-09-09T05:21:10.079Z,5.00
2017-09-09T05:23:37.822Z,5.30
2017-09-09T05:26:05.430Z,5.40
2017-09-09T05:28:33.144Z,5.13
2017-09-09T05:31:00.876Z,5.80
2017-09-09T05:33:28.631Z,4.90
2017-09-09T05:35:56.334Z,5.47
2017-09-09T05:38:24.080Z,5.27
2017-09-09T05:40:51.806Z,5.27
2017-09-09T05:43:19.499Z,5.73
2017-09-09T05:45:47.252Z,5.60
2017-09-09T05:48:14.956Z,6.10
2017-09-09T05:50:42.697Z,6.03
2017-09-09T05:53:10.377Z,5.17
2017-09-09T05:55:38.141Z,5.73
2017-09-09T05:58:05.801Z,6.40
2017-09-09T06:00:33.509Z,5.77
2017-09-09T06:03:01.184Z,5.10
2017-09-09T06:05:28.922Z,5.73
2017-09-09T06:07:56.611Z,6.00
2017-09-09T06:10:24.369Z,6.00
2017-09-09T06:12:52.058Z,5.60
2017-09-09T06:15:19.773Z,6.23
2017-09-09T06:17:47.480Z,6.17
2017-09-09T06:20:15.219Z,6.63
2017-09-09T06:22:42.893Z,6.07
2017-09-09T06:25:10.648Z,6.50
2017-09-09T06:27:41.000Z,6.20
2017-09-09T06:30:08.769Z,6.10
2017-09-09T06:32:36.439Z,6.63
2017-09-09T06:35:04.181Z,6.43
2017-09-09T06:37:31.887Z,6.20
2017-09-09T06:39:59.617Z,6.37
2017-09-09T06:42:27.295Z,6.07
2017-09-09T06:44:55.021Z,7.00
2017-09-09T06:47:22.619Z,6.20
2017-09-09T06:49:50.347Z,6.67
2017-09-09T06:52:17.986Z,6.97
2017-09-09T06:54:46.635Z,6.70
2017-09-09T06:57:14.233Z,7.30
2017-09-09T06:59:41.889Z,6.40
2017-09-09T07:02:09.485Z,7.07
2017-09-09T07:04:37.131Z,5.80
2017-09-09T07:07:04.751Z,6.37
2017-09-09T07:09:32.392Z,6.10
2017-09-09T07:11:59.997Z,6.00
2017-09-09T07:14:27.710Z,5.83
2017-09-09T07:16:55.322Z,6.00
2017-09-09T07:19:22.984Z,6.40
2017-09-09T07:21:50.650Z,6.10
2017-09-09T07:24:18.256Z,6.00
2017-09-09T07:26:45.890Z,5.50
2017-09-09T07:29:13.531Z,6.57
2017-09-09T07:31:41.166Z,6.10
2017-09-09T07:34:08.775Z,6.60
2017-09-09T07:36:36.406Z,6.23
2017-09-09T07:39:04.047Z,6.43
2017-09-09T07:41:31.676Z,6.10
2017-09-09T07:43:59.284Z,6.20
2017-09-09T07:46:26.932Z,6.40
2017-09-09T07:48:54.537Z,6.10
2017-09-09T07:51:22.179Z,6.10
2017-09-09T07:53:49.760Z,6.07
2017-09-09T07:56:17.391Z,6.03
2017-09-09T07:58:44.990Z,5.67
2017-09-09T08:01:12.628Z,6.47
2017-09-09T08:03:40.258Z,6.00
2017-09-09T08:06:07.913Z,6.00
2017-09-09T08:08:35.519Z,6.43
2017-09-09T08:11:03.179Z,5.87
2017-09-09T08:13:35.957Z,5.97
2017-09-09T08:16:04.479Z,6.57
2017-09-09T08:18:39.522Z,5.73
2017-09-09T08:21:07.488Z,5.97
2017-09-09T08:23:35.114Z,5.43
2017-09-09T08:26:02.744Z,6.03
2017-09-09T08:28:30.444Z,5.83
2017-09-09T08:30:58.105Z,6.17
2017-09-09T08:33:25.800Z,6.20
2017-09-09T08:35:53.531Z,6.83
2017-09-09T08:38:21.168Z,6.60
2017-09-09T08:40:48.821Z,5.53
2017-09-09T08:43:16.518Z,6.50
2017-09-09T08:45:44.323Z,6.00
2017-09-09T08:48:12.047Z,6.67
2017-09-09T08:50:39.767Z,6.20
2017-09-09T08:53:07.456Z,6.43
2017-09-09T08:55:35.173Z,6.70
2017-09-09T08:58:02.842Z,7.27
2017-09-09T09:00:30.611Z,6.13
2017-09-09T09:02:58.294Z,7.00
2017-09-09T09:05:26.028Z,6.60
2017-09-09T09:07:53.727Z,6.30
2017-09-09T09:10:21.418Z,6.90
2017-09-09T09:12:49.103Z,6.80
2017-09-09T09:15:16.801Z,6.57
2017-09-09T09:17:44.452Z,6.40
2017-09-09T09:20:12.129Z,6.03
2017-09-09T09:22:39.850Z,6.33
2017-09-09T09:25:07.611Z,6.70
2017-09-09T09:27:35.364Z,6.30
2017-09-09T09:30:07.470Z,6.13
2017-09-09T09:35:31.295Z,6.03
2017-09-09T09:38:02.272Z,6.57
2017-09-09T09:40:29.888Z,6.60
2017-09-09T09:42:57.539Z,6.60
2017-09-09T09:45:25.175Z,6.37
2017-09-09T09:47:52.915Z,6.43
2017-09-09T09:50:20.628Z,7.00
2017-09-09T09:52:48.389Z,6.43
2017-09-09T09:55:16.085Z,6.77
2017-09-09T09:57:43.764Z,5.57
2017-09-09T10:00:11.459Z,6.00
2017-09-09T10:02:39.177Z,5.90
2017-09-09T10:05:06.787Z,6.70
2017-09-09T10:07:43.769Z,6.50
2017-09-09T10:10:12.289Z,6.33
2017-09-09T10:12:40.027Z,5.50
2017-09-09T10:15:07.718Z,6.03
2017-09-09T10:17:35.356Z,5.80
2017-09-09T10:20:02.999Z,5.97
2017-09-09T10:22:30.715Z,5.80
2017-09-09T10:24:58.347Z,5.70
2017-09-09T10:27:26.160Z,5.23
2017-09-09T10:29:54.272Z,5.27
2017-09-09T10:32:22.063Z,5.47
2017-09-09T10:34:51.358Z,5.20
2017-09-09T10:37:19.047Z,6.07
2017-09-09T10:39:46.677Z,5.33
2017-09-09T10:42:29.530Z,5.53
2017-09-09T10:44:57.126Z,5.07
2017-09-09T10:47:24.869Z,4.80
2017-09-09T10:49:52.563Z,4.93
2017-09-09T10:52:20.299Z,4.63
2017-09-09T10:54:48.006Z,5.10
2017-09-09T10:57:15.732Z,4.97
2017-09-09T10:59:43.408Z,4.17
2017-09-09T11:02:11.160Z,4.70
2017-09-09T11:04:38.829Z,4.77
2017-09-09T11:07:06.605Z,5.00
2017-09-09T11:09:34.309Z,5.23
2017-09-09T11:12:02.008Z,4.87
2017-09-09T11:14:29.626Z,4.63
2017-09-09T11:16:57.290Z,4.67
2017-09-09T11:19:24.896Z,4.30
2017-09-09T11:21:52.578Z,4.90
2017-09-09T11:24:20.188Z,4.17
2017-09-09T11:26:47.889Z,4.33
2017-09-09T11:29:15.514Z,4.20
2017-09-09T11:31:43.160Z,4.13
2017-09-09T11:34:10.833Z,3.50
2017-09-09T11:36:38.448Z,3.93
2017-09-09T11:39:06.207Z,3.50
2017-09-09T11:41:33.915Z,3.60
2017-09-09T11:44:01.684Z,3.10
2017-09-09T11:46:29.320Z,2.43
2017-09-09T11:48:57.099Z,2.50
2017-09-09T11:51:24.773Z,2.50
2017-09-09T11:53:52.511Z,2.70
2017-09-09T11:56:20.242Z,2.30
2017-09-09T11:58:48.016Z,2.50
2017-09-09T12:01:15.734Z,2.27
2017-09-09T12:03:43.497Z,2.47
2017-09-09T12:06:11.149Z,2.30
2017-09-09T12:08:38.906Z,1.97
2017-09-09T12:11:06.603Z,1.13
2017-09-09T12:13:34.341Z,1.17
2017-09-09T12:16:02.093Z,0.70
2017-09-09T12:18:29.841Z,0.77
2017-09-09T12:20:57.522Z,0.60
2017-09-09T12:23:25.276Z,0.70
2017-09-09T12:25:52.971Z,0.60
2017-09-09T12:28:20.709Z,0.57
2017-09-09T12:30:48.460Z,0.50
2017-09-09T12:33:16.164Z,0.60
2017-09-09T12:35:43.845Z,0.50
2017-09-09T12:38:11.580Z,0.67
2017-09-09T12:40:39.263Z,0.50
2017-09-09T12:43:06.983Z,0.60
2017-09-09T12:45:34.687Z,0.50
2017-09-09T12:48:02.461Z,0.50
2017-09-09T12:50:30.164Z,0.70
2017-09-09T12:52:57.888Z,0.70
2017-09-09T12:55:25.954Z,0.60
2017-09-09T12:57:53.668Z,0.80
2017-09-09T13:00:21.401Z,0.67
2017-09-09T13:02:49.137Z,0.70
2017-09-09T13:05:16.836Z,0.70
2017-09-09T13:07:44.560Z,0.60
2017-09-09T13:10:12.241Z,0.80
2017-09-09T13:12:39.980Z,0.90
2017-09-09T13:15:07.748Z,0.90
2017-09-09T13:17:35.492Z,0.70
2017-09-09T13:20:03.262Z,0.77
2017-09-09T13:22:30.970Z,0.80
2017-09-09T13:24:58.691Z,1.10
2017-09-09T13:27:26.368Z,1.23
2017-09-09T13:29:54.133Z,1.10
2017-09-09T13:32:21.874Z,0.90
2017-09-09T13:34:49.605Z,1.33
2017-09-09T13:37:17.302Z,1.17
2017-09-09T13:39:45.048Z,1.10
2017-09-09T13:42:12.744Z,1.17
2017-09-09T13:44:40.490Z,1.30
2017-09-09T13:47:08.186Z,1.50
2017-09-09T13:49:35.940Z,1.47
2017-09-09T13:52:03.613Z,1.40
2017-09-09T13:54:31.326Z,1.53
2017-09-09T13:56:59.037Z,1.30
2017-09-09T13:59:26.822Z,1.30
2017-09-09T14:01:54.532Z,1.17
2017-09-09T14:04:22.313Z,1.13
2017-09-09T14:06:50.027Z,1.50
2017-09-09T14:09:17.766Z,1.20
2017-09-09T14:11:45.452Z,1.30
2017-09-09T14:14:13.195Z,1.40
2017-09-09T14:16:40.917Z,1.30
2017-09-09T14:19:08.660Z,1.47
2017-09-09T14:21:36.368Z,1.20
2017-09-09T14:24:04.096Z,1.50
2017-09-09T14:26:31.784Z,1.40
2017-09-09T14:28:59.550Z,1.53
2017-09-09T14:31:27.335Z,1.50
2017-09-09T14:33:55.056Z,1.50
2017-09-09T14:36:22.750Z,1.33
2017-09-09T14:38:50.493Z,1.40
2017-09-09T14:41:18.210Z,1.33
2017-09-09T14:43:45.982Z,1.70
2017-09-09T14:46:13.696Z,1.57
2017-09-09T14:48:41.431Z,1.30
2017-09-09T14:51:09.096Z,1.57
2017-09-09T14:53:36.795Z,1.40
2017-09-09T14:56:04.551Z,1.60
2017-09-09T14:58:32.240Z,1.60
2017-09-09T15:01:00.004Z,1.70
2017-09-09T15:03:27.688Z,1.60
2017-09-09T15:05:55.446Z,1.70
2017-09-09T15:08:23.156Z,1.80
2017-09-09T15:10:50.888Z,1.70
2017-09-09T15:13:18.587Z,1.80
2017-09-09T15:15:46.325Z,1.83
2017-09-09T15:18:14.006Z,2.10
2017-09-09T15:20:41.755Z,2.33
2017-09-09T15:23:09.427Z,1.87
2017-09-09T15:25:37.167Z,1.60
2017-09-09T15:28:04.844Z,1.90
2017-09-09T15:30:32.618Z,1.80
2017-09-09T15:33:00.293Z,2.17
2017-09-09T15:35:28.027Z,2.00
2017-09-09T15:37:55.739Z,2.10
2017-09-09T15:40:23.482Z,2.13
2017-09-09T15:42:51.183Z,2.10
2017-09-09T15:45:18.913Z,2.43
2017-09-09T15:47:46.608Z,2.23
2017-09-09T15:50:14.346Z,2.60
2017-09-09T15:52:42.035Z,2.53
2017-09-09T15:55:09.766Z,2.17
2017-09-09T15:57:37.501Z,2.87
2017-09-09T16:00:05.249Z,2.67
2017-09-09T16:02:32.941Z,2.30
2017-09-09T16:05:00.582Z,2.83
2017-09-09T16:07:28.275Z,2.53
2017-09-09T16:09:55.995Z,2.77
2017-09-09T16:12:23.678Z,2.77
2017-09-09T16:14:51.424Z,2.40
2017-09-09T16:17:19.110Z,2.80
2017-09-09T16:19:46.823Z,2.60
2017-09-09T16:22:14.482Z,2.70
2017-09-09T16:24:42.205Z,2.37
2017-09-09T16:27:09.893Z,2.30
2017-09-09T16:29:37.644Z,2.93
2017-09-09T16:32:05.378Z,2.57
2017-09-09T16:34:33.109Z,2.10
2017-09-09T16:37:00.891Z,2.03
2017-09-09T16:39:28.557Z,1.80
2017-09-09T16:41:56.320Z,1.70
2017-09-09T16:44:23.903Z,1.63
2017-09-09T16:46:51.630Z,1.90
2017-09-09T16:49:19.314Z,1.80
2017-09-09T16:51:47.007Z,1.70
2017-09-09T16:54:14.679Z,1.50
2017-09-09T16:56:42.415Z,1.80
2017-09-09T17:02:20.291Z,2.07
2017-09-09T17:04:47.984Z,1.80
2017-09-09T17:07:15.728Z,1.93
2017-09-09T17:09:43.455Z,1.77
2017-09-09T17:12:11.172Z,2.00
2017-09-09T17:14:38.860Z,1.67
2017-09-09T17:17:06.631Z,1.90
2017-09-09T17:19:34.298Z,2.00
2017-09-09T17:22:02.037Z,2.07
2017-09-09T17:24:29.700Z,2.07
2017-09-09T17:26:57.429Z,2.23
2017-09-09T17:29:25.141Z,2.03
2017-09-09T17:31:52.930Z,1.90
2017-09-09T17:34:20.626Z,1.57
2017-09-09T17:36:48.373Z,2.07
2017-09-09T17:39:16.108Z,1.67
2017-09-09T17:41:43.747Z,2.33
2017-09-09T17:44:11.434Z,2.20
2017-09-09T17:46:39.165Z,2.40
2017-09-09T17:49:06.838Z,2.60
2017-09-09T17:51:34.595Z,2.37
2017-09-09T17:54:02.183Z,2.40
2017-09-09T17:56:29.960Z,1.87
2017-09-09T17:58:57.634Z,2.00
2017-09-09T18:01:25.396Z,1.83
2017-09-09T18:03:53.064Z,2.00
2017-09-09T18:06:20.786Z,1.77
2017-09-09T18:08:48.488Z,1.80
2017-09-09T18:11:16.220Z,2.10
2017-09-09T18:13:43.894Z,2.30
2017-09-09T18:16:11.838Z,1.70
2017-09-09T18:18:39.511Z,1.60
2017-09-09T18:21:07.249Z,1.80
2017-09-09T18:23:34.919Z,1.83
2017-09-09T18:26:02.694Z,2.00
2017-09-09T18:28:30.405Z,1.93
2017-09-09T18:30:58.185Z,2.10
2017-09-09T18:33:25.880Z,2.20
2017-09-09T18:35:53.642Z,1.87
2017-09-09T18:38:21.353Z,2.00
2017-09-09T18:40:49.029Z,1.60
2017-09-09T18:43:16.742Z,1.80
2017-09-09T18:45:44.416Z,1.93
2017-09-09T18:48:12.231Z,1.80
2017-09-09T18:50:39.918Z,1.87
2017-09-09T18:53:07.645Z,1.87
2017-09-09T18:55:35.335Z,1.80
2017-09-09T18:58:03.073Z,1.97
2017-09-09T19:00:30.784Z,1.87
2017-09-09T19:02:58.515Z,2.13
2017-09-09T19:05:26.220Z,2.07
2017-09-09T19:07:53.972Z,2.10
2017-09-09T19:10:21.679Z,1.93
2017-09-09T19:12:49.351Z,2.00
2017-09-09T19:15:17.041Z,2.00
2017-09-09T19:17:44.746Z,1.90
2017-09-09T19:20:12.419Z,2.00
2017-09-09T19:22:40.160Z,1.67
2017-09-09T19:25:07.837Z,1.70
2017-09-09T19:27:35.595Z,1.90
2017-09-09T19:30:03.272Z,2.30
2017-09-09T19:32:31.046Z,1.73
2017-09-09T19:34:58.727Z,1.97
2017-09-09T19:37:26.438Z,1.93
2017-09-09T19:39:54.117Z,1.90
2017-09-09T19:42:21.850Z,2.10
2017-09-09T19:44:49.524Z,2.20
2017-09-09T19:47:17.246Z,2.10
2017-09-09T19:49:44.929Z,2.17
2017-09-09T19:52:12.660Z,2.23
2017-09-09T19:54:40.333Z,2.07
2017-09-09T19:57:08.067Z,2.00
2017-09-09T19:59:35.783Z,1.97
2017-09-09T20:02:03.507Z,1.93
2017-09-09T20:04:31.219Z,2.07
2017-09-09T20:06:58.937Z,2.20
2017-09-09T20:09:26.621Z,2.37
2017-09-09T20:11:54.362Z,2.77
2017-09-09T20:14:22.050Z,2.03
2017-09-09T20:16:49.826Z,2.50
2017-09-09T20:19:17.504Z,2.40
2017-09-09T20:21:45.211Z,2.97
2017-09-09T20:24:12.952Z,2.90
2017-09-09T20:26:40.673Z,2.80
2017-09-09T20:29:08.394Z,2.43
2017-09-09T20:31:36.130Z,3.30
2017-09-09T20:34:03.876Z,2.17
2017-09-09T20:36:31.573Z,2.40
2017-09-09T20:38:59.332Z,2.07
2017-09-09T20:41:27.027Z,2.30
2017-09-09T20:43:54.750Z,2.10
2017-09-09T20:46:22.412Z,2.33
2017-09-09T20:48:51.069Z,2.30
2017-09-09T20:51:18.782Z,2.17
2017-09-09T20:53:46.536Z,2.47
2017-09-09T20:56:14.223Z,2.50
2017-09-09T20:58:41.975Z,2.30
2017-09-09T21:01:09.664Z,2.20
2017-09-09T21:03:37.406Z,2.93
2017-09-09T21:06:05.079Z,2.60
2017-09-09T21:08:32.818Z,2.67
2017-09-09T21:11:00.509Z,2.73
2017-09-09T21:13:28.235Z,2.50
2017-09-09T21:15:55.932Z,2.40
2017-09-09T21:18:23.650Z,2.30
2017-09-09T21:20:51.311Z,2.70
2017-09-09T21:23:19.037Z,2.43
2017-09-09T21:25:46.765Z,2.57
2017-09-09T21:28:14.509Z,2.73
2017-09-09T21:30:42.239Z,2.70
2017-09-09T21:33:09.973Z,2.30
2017-09-09T21:35:37.701Z,2.20
2017-09-09T21:38:05.476Z,2.07
2017-09-09T21:40:33.164Z,2.03
2017-09-09T21:43:00.921Z,2.40
2017-09-09T21:45:28.625Z,2.50
2017-09-09T21:47:56.367Z,2.43
2017-09-09T21:50:24.048Z,2.80
2017-09-09T21:52:51.834Z,2.40
2017-09-09T21:55:19.506Z,2.90
2017-09-09T21:57:47.240Z,2.23
2017-09-09T22:00:14.941Z,2.10
2017-09-09T22:02:42.756Z,2.20
2017-09-09T22:05:10.493Z,1.90
2017-09-09T22:07:38.188Z,2.07
2017-09-09T22:10:05.940Z,2.00
2017-09-09T22:12:33.678Z,2.17
2017-09-09T22:15:01.412Z,2.27
2017-09-09T22:17:29.112Z,2.60
2017-09-09T22:19:56.859Z,2.10
2017-09-09T22:22:24.554Z,2.13
2017-09-09T22:24:52.305Z,2.23
2017-09-09T22:27:20.016Z,2.73
2017-09-09T22:29:47.758Z,2.60
2017-09-09T22:32:15.485Z,2.90
2017-09-09T22:34:43.215Z,3.10
2017-09-09T22:37:10.901Z,2.70
2017-09-09T22:39:38.805Z,3.00
2017-09-09T22:42:06.718Z,3.10
2017-09-09T22:44:34.619Z,3.40
2017-09-09T22:47:02.520Z,3.03
2017-09-09T22:49:33.554Z,2.80
2017-09-09T22:52:01.415Z,3.13
2017-09-09T22:54:29.344Z,2.80
2017-09-09T22:56:57.196Z,4.10
2017-09-09T22:59:25.087Z,3.00
2017-09-09T23:01:52.939Z,2.97
2017-09-09T23:04:20.855Z,3.00
2017-09-09T23:06:48.710Z,2.70
2017-09-09T23:09:16.598Z,3.60
2017-09-09T23:11:44.434Z,3.97
2017-09-09T23:14:12.322Z,3.30
2017-09-09T23:16:40.218Z,3.43
2017-09-09T23:19:08.101Z,2.50
2017-09-09T23:21:35.964Z,3.30
2017-09-09T23:24:03.872Z,3.30
2017-09-09T23:26:31.717Z,2.70
2017-09-09T23:28:59.636Z,3.17
2017-09-09T23:31:27.528Z,3.30
2017-09-09T23:33:55.419Z,3.30
2017-09-09T23:36:23.262Z,3.27
2017-09-09T23:38:51.179Z,3.17
2017-09-09T23:41:19.031Z,3.00
2017-09-09T23:43:46.906Z,3.10
2017-09-09T23:46:14.828Z,3.40
2017-09-09T23:48:42.674Z,3.60
2017-09-09T23:51:10.617Z,3.60
2017-09-09T23:53:38.447Z,3.40
2017-09-09T23:56:06.363Z,3.27
2017-09-09T23:58:34.235Z,3.20
